Time;durP1;ratioP1;P1;durP2;ratioP2;P2;SDS_P1;SDS_P2;PMS_P1;PMS_P2;Temp;Humidity;BMP_temperature;BMP_pressure;BME280_temperature;BME280_humidity;BME280_pressure;Samples;Min_cycle;Max_cycle;Signal;HPM_P1;HPM_P2
2021/05/11 00:02:45;;;;;;;7.30;5.10;;;;;;;13.64;53.79;98704.25;2262246;79;22323;-79
2021/05/11 00:05:55;;;;;;;8.53;5.08;;;;;;;13.59;53.79;98704.26;2262432;79;22414;-79
2021/05/11 00:09:05;;;;;;;10.18;5.10;;;;;;;13.54;53.76;98703.40;2213069;79;22785;-78
2021/05/11 00:12:14;;;;;;;8.80;4.67;;;;;;;13.49;54.11;98702.97;2262179;79;22379;-77
2021/05/11 00:15:23;;;;;;;7.85;5.62;;;;;;;13.45;53.99;98704.73;2213096;79;22427;-79
2021/05/11 00:18:34;;;;;;;7.60;4.40;;;;;;;13.41;54.45;98706.05;2275762;77;22890;-78
2021/05/11 00:21:43;;;;;;;18.50;5.62;;;;;;;13.36;54.22;98701.69;2213007;79;22885;-80
2021/05/11 00:24:53;;;;;;;8.88;4.58;;;;;;;13.28;54.39;98700.82;2212912;79;22766;-79
2021/05/11 00:28:08;;;;;;;7.70;5.20;;;;;;;13.23;54.67;98713.06;2261578;79;23109;-78
2021/05/11 00:31:18;;;;;;;6.25;4.60;;;;;;;13.18;54.80;98705.64;2296249;77;22433;-78
2021/05/11 00:34:28;;;;;;;10.53;4.75;;;;;;;13.16;54.86;98707.35;2212687;79;22904;-80
2021/05/11 00:37:43;;;;;;;11.18;5.37;;;;;;;13.13;54.90;98703.86;2261799;79;22685;-78
2021/05/11 00:40:54;;;;;;;8.50;4.67;;;;;;;13.12;55.02;98705.61;2296767;77;22273;-78
2021/05/11 00:44:03;;;;;;;7.22;5.12;;;;;;;13.11;55.16;98705.17;2261445;79;22807;-78
2021/05/11 00:47:15;;;;;;;11.00;7.47;;;;;;;13.12;55.23;98705.61;2296030;77;22181;-79
2021/05/11 00:50:25;;;;;;;7.42;4.83;;;;;;;13.07;55.31;98696.44;2212449;79;22465;-79
2021/05/11 00:53:42;;;;;;;10.70;5.47;;;;;;;13.06;55.36;98703.86;2275155;77;22454;-78
2021/05/11 00:56:58;;;;;;;9.05;4.72;;;;;;;13.02;55.72;98698.63;2295906;77;22792;-79
2021/05/11 01:00:09;;;;;;;9.80;5.20;;;;;;;12.97;55.77;98698.59;2212493;79;23042;-78
2021/05/11 01:03:25;;;;;;;28.45;6.67;;;;;;;12.93;56.06;98702.09;2268823;78;22515;-78
2021/05/11 01:06:35;;;;;;;11.25;5.28;;;;;;;12.89;56.06;98704.70;2212109;79;22576;-78
2021/05/11 01:09:45;;;;;;;111.97;12.73;;;;;;;12.88;56.34;98700.34;2212404;79;22660;-78
2021/05/11 01:12:55;;;;;;;7.70;4.60;;;;;;;12.85;56.34;98693.36;2212607;79;22908;-78
2021/05/11 01:16:04;;;;;;;7.90;4.92;;;;;;;12.86;56.48;98690.30;2212665;79;22445;-78
2021/05/11 01:19:17;;;;;;;9.95;5.03;;;;;;;12.85;56.26;98694.66;2212927;79;22521;-78
2021/05/11 01:22:45;;;;;;;6.08;4.20;;;;;;;12.82;56.32;98685.49;2268770;77;22819;-79
2021/05/11 01:25:54;;;;;;;10.45;5.20;;;;;;;12.79;56.57;98688.11;2212348;79;22556;-78
2021/05/11 01:29:15;;;;;;;8.93;5.85;;;;;;;12.75;56.37;98689.86;2241783;79;27751;-78
2021/05/11 01:32:50;;;;;;;9.05;5.40;;;;;;;12.95;56.17;98685.06;2398085;74;22830;-78
2021/05/11 01:46:55;;;;;;;8.83;4.78;;;;;;;12.71;56.83;98667.59;2212526;79;22955;-78
2021/05/11 02:25:28;;;;;;;7.12;5.10;;;;;;;12.43;57.66;98654.48;2212350;79;22383;-78
2021/05/11 02:28:38;;;;;;;10.60;5.00;;;;;;;12.38;57.76;98657.96;2212377;79;22741;-78
2021/05/11 02:31:47;;;;;;;7.33;5.20;;;;;;;12.34;57.88;98649.23;2261483;79;22513;-78
2021/05/11 02:34:57;;;;;;;6.87;5.05;;;;;;;12.30;57.92;98651.84;2212428;79;22913;-79
2021/05/11 02:38:06;;;;;;;5.95;5.35;;;;;;;12.27;58.41;98650.52;2212973;79;22919;-78
2021/05/11 02:41:16;;;;;;;7.80;4.72;;;;;;;12.25;58.21;98649.65;2212200;79;22908;-78
2021/05/11 02:44:35;;;;;;;7.58;5.28;;;;;;;12.19;58.35;98645.27;2258475;79;22489;-79
2021/05/11 02:47:48;;;;;;;7.97;5.55;;;;;;;12.18;58.32;98651.81;2241776;79;27718;-79
2021/05/11 02:50:57;;;;;;;12.58;7.47;;;;;;;12.37;58.17;98641.38;2212434;79;22631;-79
2021/05/11 02:54:07;;;;;;;10.95;5.75;;;;;;;12.28;58.29;98650.53;2261437;79;22319;-79
2021/05/11 02:57:16;;;;;;;8.13;4.87;;;;;;;12.23;58.62;98654.88;2212483;79;22711;-78
2021/05/11 03:00:27;;;;;;;8.88;5.28;;;;;;;12.20;58.69;98650.95;2275163;77;22474;-79
2021/05/11 03:03:48;;;;;;;6.62;5.30;;;;;;;12.18;58.84;98651.37;2258239;79;22188;-78
2021/05/11 03:06:58;;;;;;;10.30;5.53;;;;;;;12.15;58.76;98651.80;2296108;77;22869;-78
2021/05/11 03:10:07;;;;;;;8.88;5.35;;;;;;;12.13;58.69;98651.33;2296144;77;22326;-79
2021/05/11 03:13:16;;;;;;;9.65;5.62;;;;;;;12.13;58.79;98653.08;2212262;79;22578;-78
2021/05/11 03:16:27;;;;;;;6.17;5.03;;;;;;;12.11;58.93;98654.81;2212609;79;22910;-78
2021/05/11 03:19:37;;;;;;;64.87;10.00;;;;;;;12.10;58.92;98655.25;2212553;79;23191;-78
2021/05/11 03:22:46;;;;;;;6.22;4.75;;;;;;;12.11;58.95;98655.69;2295762;77;22545;-79
2021/05/11 03:25:55;;;;;;;29.27;18.93;;;;;;;12.16;58.87;98645.70;2212580;79;22911;-78
2021/05/11 03:29:05;;;;;;;10.83;6.27;;;;;;;12.20;59.11;98648.77;2212262;79;22396;-78
2021/05/11 03:32:17;;;;;;;9.30;5.00;;;;;;;12.26;59.06;98649.66;2261352;79;22187;-79
2021/05/11 03:35:26;;;;;;;17.95;5.15;;;;;;;12.31;58.93;98644.42;2212233;79;22511;-77
2021/05/11 03:38:36;;;;;;;10.23;4.87;;;;;;;12.35;58.83;98637.89;2212410;79;22446;-79
2021/05/11 03:41:48;;;;;;;17.05;5.12;;;;;;;12.41;58.74;98634.41;2275457;77;22868;-78
2021/05/11 03:45:00;;;;;;;15.98;5.78;;;;;;;12.57;58.81;98633.55;2238253;79;27985;-78
2021/05/11 03:48:08;;;;;;;9.53;5.10;;;;;;;12.84;58.02;98630.48;2192736;79;28515;-78
2021/05/11 03:51:18;;;;;;;14.13;5.20;;;;;;;13.07;57.62;98629.62;2212721;79;22861;-78
2021/05/11 03:54:27;;;;;;;247.05;25.32;;;;;;;13.03;57.66;98634.43;2212454;79;23064;-78
2021/05/11 03:57:37;;;;;;;15.55;4.80;;;;;;;13.03;57.82;98621.77;2213024;79;22302;-79
2021/05/11 04:00:50;;;;;;;4.97;4.40;;;;;;;13.08;57.73;98626.12;2307209;76;22331;-78
2021/05/11 04:03:59;;;;;;;8.68;4.25;;;;;;;13.13;57.49;98628.73;2261549;79;22645;-79
2021/05/11 04:07:12;;;;;;;7.12;5.22;;;;;;;13.22;57.54;98626.56;2212394;79;23363;-79
2021/05/11 04:10:28;;;;;;;8.73;5.00;;;;;;;13.33;57.40;98622.17;2238601;79;27960;-79
2021/05/11 04:13:52;;;;;;;6.90;4.65;;;;;;;13.75;56.55;98621.58;2211818;79;23024;-79
2021/05/11 04:16:53;;;;;;;9.65;4.30;;;;;;;13.92;56.17;98619.34;2211908;79;22888;-78
2021/05/11 04:20:03;;;;;;;12.28;4.92;;;;;;;14.10;55.80;98625.38;2261593;79;22283;-79
2021/05/11 04:23:14;;;;;;;5.03;4.30;;;;;;;14.30;55.60;98617.80;2275089;77;23664;-80
2021/05/11 04:26:26;;;;;;;5.83;4.53;;;;;;;14.52;55.22;98617.24;2192017;79;28260;-78
2021/05/11 04:29:36;;;;;;;18.50;5.85;;;;;;;14.92;54.02;98614.31;2260527;79;23119;-78
2021/05/11 04:32:45;;;;;;;7.95;4.85;;;;;;;14.90;53.90;98618.27;2211915;79;23200;-82
2021/05/11 04:35:55;;;;;;;7.90;4.65;;;;;;;14.97;53.75;98622.58;2261181;79;22394;-79
2021/05/11 04:39:05;;;;;;;7.97;4.70;;;;;;;15.16;53.30;98618.47;2211967;79;22918;-79
2021/05/11 04:42:20;;;;;;;6.03;4.78;;;;;;;15.28;53.12;98620.96;2210678;79;22374;-80
2021/05/11 04:45:33;;;;;;;5.58;4.80;;;;;;;15.36;52.92;98620.44;2301584;77;22917;-79
2021/05/11 04:48:50;;;;;;;10.10;4.58;;;;;;;15.48;52.78;98620.75;2262247;79;22777;-82
2021/05/11 04:52:00;;;;;;;23.25;4.53;;;;;;;15.58;52.51;98615.84;2212501;79;22901;-80
2021/05/11 04:55:13;;;;;;;7.78;4.47;;;;;;;15.75;52.53;98611.27;2260825;79;22529;-80
2021/05/11 04:58:23;;;;;;;7.58;4.45;;;;;;;15.91;51.85;98615.45;2211690;79;23579;-80
2021/05/11 05:01:33;;;;;;;10.32;4.50;;;;;;;16.15;51.50;98613.37;2300646;77;23551;-80
2021/05/11 05:04:44;;;;;;;5.20;4.28;;;;;;;16.38;51.14;98611.72;2212429;79;23530;-79
2021/05/11 05:07:54;;;;;;;6.37;4.30;;;;;;;16.60;50.58;98613.16;2275440;77;22897;-81
2021/05/11 05:11:09;;;;;;;7.08;4.33;;;;;;;16.81;49.98;98608.02;2275214;77;22916;-82
2021/05/11 05:14:19;;;;;;;36.53;6.05;;;;;;;16.93;49.67;98605.61;2275281;77;23019;-78
2021/05/11 05:17:30;;;;;;;5.12;4.00;;;;;;;17.09;49.26;98604.45;2299352;77;22793;-79
2021/05/11 05:20:40;;;;;;;8.23;4.03;;;;;;;17.33;49.31;98605.31;2276245;77;27893;-80
2021/05/11 05:24:00;;;;;;;10.80;4.25;;;;;;;17.75;48.17;98599.69;2262261;79;22783;-79
2021/05/11 05:27:15;;;;;;;14.60;4.00;;;;;;;17.91;47.78;98592.77;2262953;78;22925;-80
2021/05/11 05:30:30;;;;;;;4.83;3.90;;;;;;;18.15;47.20;98594.86;2250162;78;27707;-79
2021/05/11 05:33:40;;;;;;;7.45;3.90;;;;;;;18.42;45.98;98587.65;2296097;77;22820;-80
2021/05/11 05:37:06;;;;;;;4.55;3.70;;;;;;;18.39;46.12;98592.14;2301699;77;22888;-80
2021/05/11 05:40:20;;;;;;;4.85;3.98;;;;;;;18.49;45.41;98588.38;2257997;79;22209;-80
2021/05/11 05:43:30;;;;;;;7.83;3.90;;;;;;;18.58;45.90;98591.25;2275333;77;38410;-81
2021/05/11 05:46:39;;;;;;;7.10;3.72;;;;;;;18.92;44.86;98597.46;2212267;79;22598;-79
2021/05/11 05:49:53;;;;;;;4.87;3.27;;;;;;;18.93;44.78;98587.75;2301417;77;22959;-79
2021/05/11 05:53:13;;;;;;;7.03;3.70;;;;;;;19.09;44.50;98584.70;2212550;79;23024;-81
2021/05/11 05:56:21;;;;;;;4.62;3.37;;;;;;;19.17;43.68;98584.49;2296550;77;23064;-80
2021/05/11 05:59:30;;;;;;;4.33;3.10;;;;;;;19.17;43.93;98592.89;2275367;77;22999;-81
2021/05/11 06:02:43;;;;;;;8.40;3.40;;;;;;;19.27;43.76;98584.66;2277139;78;24008;-79
2021/05/11 06:05:53;;;;;;;6.50;3.77;;;;;;;19.33;43.76;98586.27;2238318;79;27947;-80
2021/05/11 06:09:06;;;;;;;7.72;3.75;;;;;;;19.64;43.20;98581.88;2210672;79;23207;-79
2021/05/11 06:12:23;;;;;;;548.47;47.10;;;;;;;19.77;43.07;98586.83;2211688;79;23278;-79
2021/05/11 06:18:59;;;;;;;3.67;3.30;;;;;;;20.09;42.26;98558.94;2261390;79;22825;-76
2021/05/11 06:22:15;;;;;;;6.78;3.87;;;;;;;20.04;42.87;98559.54;2397470;74;22784;-80
2021/05/11 06:25:27;;;;;;;5.85;3.50;;;;;;;20.16;42.41;98557.83;2258781;79;22489;-80
2021/05/11 06:28:40;;;;;;;4.53;3.70;;;;;;;20.28;42.23;98549.95;2212660;79;22907;-78
2021/05/11 06:31:50;;;;;;;9.05;3.80;;;;;;;20.48;42.48;98558.16;2275875;77;27952;-79
2021/05/11 06:35:03;;;;;;;7.08;3.95;;;;;;;20.84;41.11;98560.08;2261958;79;22805;-80
2021/05/11 06:38:11;;;;;;;8.90;3.98;;;;;;;20.96;41.11;98554.36;2193099;79;28715;-78
2021/05/11 06:41:21;;;;;;;9.83;3.80;;;;;;;21.54;39.97;98544.80;2212263;79;22905;-79
2021/05/11 06:44:38;;;;;;;4.75;3.70;;;;;;;21.42;40.21;98548.77;2296119;77;23002;-79
2021/05/11 06:48:01;;;;;;;24.45;6.55;;;;;;;21.41;39.82;98543.05;2210393;79;23211;-78
2021/05/11 06:54:46;;;;;;;9.90;3.70;;;;;;;21.75;40.16;98543.16;2212668;79;22890;-77
2021/05/11 06:57:56;;;;;;;6.00;3.20;;;;;;;21.89;40.03;98549.67;2212272;79;22335;-78
2021/05/11 07:01:15;;;;;;;6.25;3.42;;;;;;;21.96;40.11;98544.98;2308146;77;23526;-79
2021/05/11 07:04:24;;;;;;;4.27;3.43;;;;;;;22.16;38.98;98542.91;2287134;76;27950;-78
2021/05/11 07:07:37;;;;;;;11.63;3.73;;;;;;;22.42;38.63;98548.05;2241811;79;28366;-79
2021/05/11 07:10:48;;;;;;;6.20;3.27;;;;;;;22.58;38.60;98543.47;2212722;79;22879;-80
2021/05/11 07:13:57;;;;;;;8.18;3.40;;;;;;;22.54;39.27;98551.56;2261685;79;22810;-78
2021/05/11 07:17:07;;;;;;;3.22;2.92;;;;;;;22.64;38.80;98540.08;2212680;79;23008;-77
2021/05/11 07:20:18;;;;;;;3.90;2.90;;;;;;;22.83;38.61;98542.41;2212174;79;22759;-77
2021/05/11 07:23:27;;;;;;;11.80;3.65;;;;;;;22.98;38.42;98536.89;2212415;79;23214;-78
2021/05/11 07:26:47;;;;;;;5.22;3.12;;;;;;;23.24;38.29;98540.21;2212390;79;23517;-78
2021/05/11 07:29:53;;;;;;;6.72;2.98;;;;;;;23.17;37.05;98531.16;2259340;79;21674;-79
2021/05/11 07:33:00;;;;;;;6.87;3.25;;;;;;;23.15;37.16;98537.02;2255080;77;28324;-79
2021/05/11 07:36:10;;;;;;;3.45;2.83;;;;;;;23.68;36.35;98528.95;2212459;79;23051;-79
2021/05/11 07:39:21;;;;;;;7.28;3.15;;;;;;;23.64;37.28;98530.02;2275179;77;22351;-80
2021/05/11 07:46:05;;;;;;;27.90;4.40;;;;;;;24.05;36.79;98534.28;2212457;79;22884;-79
2021/05/11 07:49:25;;;;;;;4.03;3.40;;;;;;;24.25;35.29;98531.13;2275140;77;22911;-79
2021/05/11 08:10:18;;;;;;;10.80;3.15;;;;;;;25.06;33.36;98513.33;2212000;79;23212;-78
2021/05/11 08:16:56;;;;;;;3.40;2.58;;;;;;;25.44;33.45;98513.14;2212154;79;23001;-80
2021/05/11 08:20:12;;;;;;;42.93;6.65;;;;;;;25.50;33.22;98509.67;2287052;76;27936;-79
2021/05/11 08:27:26;;;;;;;6.03;3.17;;;;;;;25.95;32.93;98517.02;2299462;77;22875;-80
2021/05/11 08:30:08;;;;;;;3.67;3.22;;;;;;;25.90;32.63;98514.20;2262329;79;23156;-79
2021/05/11 08:33:19;;;;;;;3.83;2.62;;;;;;;25.92;32.81;98517.18;2212493;79;23060;-80
2021/05/11 08:36:29;;;;;;;12.53;3.00;;;;;;;26.04;33.11;98525.03;2296618;77;22840;-80
2021/05/11 08:39:38;;;;;;;5.15;3.12;;;;;;;26.16;33.27;98523.00;2212904;79;22470;-79
2021/05/11 08:42:48;;;;;;;5.83;3.15;;;;;;;25.97;33.07;98516.45;2262075;79;22554;-79
2021/05/11 08:45:58;;;;;;;8.08;3.47;;;;;;;25.88;33.80;98513.42;2262449;79;22844;-78
2021/05/11 08:49:11;;;;;;;4.87;3.52;;;;;;;25.95;33.91;98510.80;2261962;78;22447;-79
2021/05/11 08:52:27;;;;;;;7.15;3.90;;;;;;;26.02;34.28;98507.73;2212180;79;22907;-81
2021/05/11 09:06:25;;;;;;;6.72;2.80;;;;;;;26.12;31.68;98507.21;2298838;77;23159;-80
2021/05/11 09:09:49;;;;;;;11.38;3.30;;;;;;;26.15;31.74;98508.38;2261959;79;22201;-79
2021/05/11 09:23:31;;;;;;;13.22;3.50;;;;;;;26.07;32.01;98511.48;2249242;78;27678;-79
2021/05/11 09:23:39;;;;;;;5.80;3.10;;;;;;;26.03;30.81;98510.80;2261957;79;22592;-80
2021/05/11 09:26:49;;;;;;;5.65;2.67;;;;;;;26.06;30.82;98506.22;2296571;77;22848;-80
2021/05/11 09:30:24;;;;;;;14.78;2.90;;;;;;;25.81;31.70;98506.69;2287147;76;38557;-82
2021/05/11 09:33:36;;;;;;;16.17;3.77;;;;;;;26.47;30.86;98503.89;2300722;77;22913;-79
2021/05/11 09:52:12;;;;;;;5.65;2.70;;;;;;;26.59;31.50;98493.80;2264988;77;22380;-81
2021/05/11 09:54:54;;;;;;;6.45;2.95;;;;;;;26.81;31.77;98501.42;2261821;79;22458;-81
2021/05/11 09:58:07;;;;;;;25.02;3.05;;;;;;;27.15;31.07;98490.95;2296220;77;22875;-80
2021/05/11 10:10:26;;;;;;;7.78;3.02;;;;;;;27.27;30.06;98492.39;2275662;77;23027;-81
2021/05/11 10:40:52;;;;;;;9.23;2.80;;;;;;;27.60;29.67;98469.36;2296037;77;22862;-80
2021/05/11 10:47:22;;;;;;;8.25;3.90;;;;;;;27.78;29.80;98461.13;2213023;79;22671;-79
2021/05/11 10:50:32;;;;;;;5.10;2.90;;;;;;;27.67;29.40;98456.91;2301261;77;22911;-81
2021/05/11 10:53:44;;;;;;;24.37;4.03;;;;;;;27.84;29.29;98449.53;2213257;79;23198;-80
2021/05/11 10:57:04;;;;;;;6.95;2.72;;;;;;;28.12;28.76;98450.41;2258746;79;22229;-79
2021/05/11 11:00:21;;;;;;;11.63;2.92;;;;;;;28.15;28.85;98439.00;2212764;79;23375;-80
2021/05/11 11:06:45;;;;;;;13.85;3.27;;;;;;;28.75;28.52;98437.24;2213002;79;23012;-80
2021/05/11 11:09:54;;;;;;;16.73;3.50;;;;;;;28.97;27.68;98439.34;2211823;79;22917;-81
2021/05/11 11:13:05;;;;;;;9.05;3.15;;;;;;;28.94;27.69;98427.46;2261309;79;22813;-79
2021/05/11 11:16:15;;;;;;;129.23;14.55;;;;;;;29.08;28.48;98430.05;2303353;77;23206;-82
2021/05/11 11:19:25;;;;;;;6.67;3.10;;;;;;;29.43;27.79;98428.92;2213099;79;23329;-81
2021/05/11 11:26:13;;;;;;;8.80;2.87;;;;;;;29.51;27.71;98431.58;2213025;79;22754;-80
2021/05/11 11:29:23;;;;;;;6.33;2.77;;;;;;;29.62;26.97;98428.98;2213023;79;23217;-80
2021/05/11 11:32:34;;;;;;;16.77;3.30;;;;;;;29.86;26.98;98441.13;2275930;77;22513;-79
2021/05/11 11:35:43;;;;;;;24.65;4.20;;;;;;;29.87;27.05;98430.25;2194081;79;28084;-80
2021/05/11 11:38:53;;;;;;;12.07;2.83;;;;;;;30.01;26.40;98428.78;2262191;79;22249;-79
2021/05/11 11:42:06;;;;;;;7.47;2.70;;;;;;;29.55;27.45;98423.19;2262013;79;22811;-79
2021/05/11 11:45:15;;;;;;;6.15;2.77;;;;;;;29.70;27.45;98419.38;2262183;79;22896;-79
2021/05/11 11:48:25;;;;;;;8.63;2.98;;;;;;;29.69;27.28;98423.53;2212904;79;22904;-81
2021/05/11 11:51:36;;;;;;;15.75;2.90;;;;;;;29.34;27.02;98404.50;2212638;79;22593;-79
2021/05/11 11:58:35;;;;;;;6.12;2.70;;;;;;;29.44;27.38;98417.20;2212401;79;22662;-81
2021/05/11 12:01:45;;;;;;;6.33;2.62;;;;;;;29.49;27.31;98408.84;2275644;77;23365;-80
2021/05/11 12:04:55;;;;;;;7.90;2.80;;;;;;;29.58;27.35;98407.31;2212949;79;22896;-79
2021/05/11 12:08:18;;;;;;;7.08;2.60;;;;;;;29.66;26.96;98405.78;2262123;79;22817;-79
2021/05/11 12:11:18;;;;;;;8.15;2.77;;;;;;;29.85;27.70;98397.23;2212673;79;22575;-80
2021/05/11 12:14:29;;;;;;;15.48;13.95;;;;;;;29.90;27.62;98395.54;2212880;79;22869;-79
2021/05/11 12:17:40;;;;;;;8.60;3.33;;;;;;;29.92;28.11;98385.52;2193422;79;28596;-79
2021/05/11 12:20:51;;;;;;;5.25;2.72;;;;;;;29.51;27.64;98387.22;2212927;79;22964;-79
2021/05/11 12:24:00;;;;;;;10.05;3.42;;;;;;;29.62;27.92;98380.09;2212811;79;23049;-79
2021/05/11 12:27:10;;;;;;;6.87;3.22;;;;;;;30.00;26.76;98375.05;2213188;79;22591;-81
2021/05/11 12:30:20;;;;;;;5.70;2.83;;;;;;;30.05;27.10;98376.94;2212808;79;22890;-80
2021/05/11 12:33:30;;;;;;;12.13;8.68;;;;;;;29.84;27.66;98379.85;2213044;79;22497;-79
2021/05/11 12:36:50;;;;;;;4.10;2.83;;;;;;;29.59;27.65;98376.28;2262255;79;22770;-79
2021/05/11 12:40:03;;;;;;;5.05;2.60;;;;;;;29.76;27.31;98359.75;2193989;79;28393;-80
2021/05/11 12:43:11;;;;;;;4.60;2.95;;;;;;;30.30;27.24;98367.38;2288365;76;27957;-81
2021/05/11 12:46:21;;;;;;;6.80;2.58;;;;;;;30.79;25.58;98362.80;2212904;79;22575;-80
2021/05/11 12:49:30;;;;;;;4.83;2.47;;;;;;;30.68;25.91;98373.92;2262333;79;22320;-80
2021/05/11 12:52:40;;;;;;;4.30;2.80;;;;;;;30.57;25.71;98364.92;2213829;79;22828;-80
2021/05/11 12:56:03;;;;;;;23.57;3.80;;;;;;;30.35;26.34;98358.50;2212452;79;24721;-80
2021/05/11 12:59:12;;;;;;;8.95;2.75;;;;;;;30.39;25.83;98355.94;2262293;79;23112;-80
2021/05/11 13:02:32;;;;;;;5.08;2.55;;;;;;;30.23;25.30;98348.63;2193366;79;28072;-79
2021/05/11 13:09:26;;;;;;;12.23;2.55;;;;;;;29.95;25.62;98339.55;2212160;79;23396;-78
2021/05/11 13:16:20;;;;;;;6.67;2.40;;;;;;;29.83;25.83;98339.13;2262112;79;22943;-80
2021/05/11 13:23:24;;;;;;;6.30;2.50;;;;;;;29.82;25.32;98330.69;2299296;77;22879;-80
2021/05/11 13:26:36;;;;;;;5.08;2.65;;;;;;;30.15;24.95;98333.55;2212259;79;22426;-80
2021/05/11 13:29:55;;;;;;;6.90;2.65;;;;;;;30.19;24.59;98326.10;2239652;79;38257;-80
2021/05/11 13:33:12;;;;;;;17.10;3.40;;;;;;;30.15;24.46;98314.72;2213580;79;22373;-79
2021/05/11 13:36:14;;;;;;;3.45;2.65;;;;;;;29.94;24.78;98310.93;2213007;79;22873;-81
2021/05/11 13:39:25;;;;;;;20.77;3.47;;;;;;;29.76;25.05;98299.23;2212745;79;23068;-79
2021/05/11 13:42:35;;;;;;;9.48;2.90;;;;;;;29.57;25.38;98312.33;2212860;79;23064;-80
2021/05/11 13:45:44;;;;;;;8.85;3.47;;;;;;;29.88;25.75;98312.73;2262119;79;22415;-79
2021/05/11 13:49:00;;;;;;;7.50;2.60;;;;;;;29.94;25.45;98294.78;2213280;79;22402;-80
2021/05/11 13:52:10;;;;;;;5.92;2.80;;;;;;;29.95;25.43;98303.23;2213412;79;22454;-79
2021/05/11 13:55:27;;;;;;;10.60;2.80;;;;;;;30.02;25.63;98296.44;2242525;79;27942;-78
2021/05/11 14:02:22;;;;;;;12.78;3.22;;;;;;;30.72;24.32;98283.81;2275846;77;22858;-79
2021/05/11 14:05:27;;;;;;;11.40;3.60;;;;;;;30.30;24.76;98273.64;2262272;79;22819;-80
2021/05/11 14:08:36;;;;;;;12.37;3.58;;;;;;;30.28;24.46;98275.59;2296830;77;22503;-80
2021/05/11 14:11:45;;;;;;;4.75;2.60;;;;;;;30.13;24.93;98270.05;2276011;77;22592;-80
2021/05/11 14:14:55;;;;;;;9.35;2.55;;;;;;;30.14;25.51;98273.97;2212962;79;22906;-80
2021/05/11 14:18:05;;;;;;;6.72;2.70;;;;;;;29.83;25.04;98268.69;2212162;79;22917;-80
2021/05/11 14:21:14;;;;;;;15.35;3.40;;;;;;;29.89;24.90;98264.19;2212555;79;22498;-82
2021/05/11 14:24:27;;;;;;;7.78;2.70;;;;;;;30.03;24.73;98257.79;2213218;79;22546;-81
2021/05/11 14:27:36;;;;;;;8.20;2.72;;;;;;;29.94;24.51;98261.15;2213952;79;22675;-79
2021/05/11 14:30:47;;;;;;;4.65;2.27;;;;;;;30.14;24.68;98240.33;2212271;79;23225;-80
2021/05/11 14:33:56;;;;;;;12.30;2.87;;;;;;;30.00;24.46;98252.61;2212767;79;22654;-80
2021/05/11 14:37:07;;;;;;;7.37;3.02;;;;;;;29.94;24.30;98245.87;2212698;79;22925;-81
2021/05/11 14:40:19;;;;;;;5.83;2.47;;;;;;;30.14;24.28;98252.92;2296331;77;22868;-79
2021/05/11 14:43:29;;;;;;;21.17;11.97;;;;;;;29.83;24.64;98252.55;2212768;79;23022;-79
2021/05/11 14:46:38;;;;;;;15.55;3.20;;;;;;;29.86;24.42;98246.08;2299272;77;22270;-79
2021/05/11 14:49:48;;;;;;;11.05;2.62;;;;;;;29.77;24.29;98240.42;2262171;79;22636;-80
2021/05/11 14:52:59;;;;;;;6.67;2.60;;;;;;;29.56;24.38;98238.50;2213363;79;22867;-80
2021/05/11 14:56:09;;;;;;;7.47;2.80;;;;;;;29.57;24.12;98235.70;2239827;79;28059;-80
2021/05/11 14:59:19;;;;;;;9.00;3.20;;;;;;;29.71;24.19;98222.55;2213446;79;22873;-79
2021/05/11 15:02:29;;;;;;;13.95;2.98;;;;;;;29.74;24.46;98221.83;2299295;77;22390;-79
2021/05/11 15:05:39;;;;;;;4.72;2.60;;;;;;;29.66;24.54;98221.55;2275896;77;22901;-81
2021/05/11 15:08:48;;;;;;;6.92;2.50;;;;;;;29.67;24.83;98220.58;2275932;77;22685;-81
2021/05/11 15:11:58;;;;;;;8.95;2.72;;;;;;;29.61;24.96;98215.66;2212947;79;22553;-80
2021/05/11 15:15:09;;;;;;;8.38;5.12;;;;;;;29.49;25.11;98211.21;2213140;79;22911;-80
2021/05/11 15:18:18;;;;;;;4.17;3.33;;;;;;;29.67;24.68;98208.48;2213588;79;22366;-80
2021/05/11 15:21:28;;;;;;;9.25;3.12;;;;;;;29.59;24.94;98207.34;2262657;79;22673;-80
2021/05/11 15:24:38;;;;;;;7.37;2.90;;;;;;;29.56;25.61;98202.20;2254197;77;22664;-80
2021/05/11 15:27:47;;;;;;;10.68;3.25;;;;;;;29.61;25.03;98188.77;2261944;79;23099;-80
2021/05/11 15:30:57;;;;;;;7.50;2.70;;;;;;;29.67;25.40;98193.69;2297221;77;22644;-79
2021/05/11 15:34:06;;;;;;;5.28;2.30;;;;;;;29.74;24.97;98193.59;2296909;77;22808;-80
2021/05/11 15:37:16;;;;;;;5.55;2.52;;;;;;;29.68;24.12;98181.95;2212967;79;23355;-82
2021/05/11 15:40:26;;;;;;;23.67;5.00;;;;;;;29.66;24.72;98187.94;2213404;79;22397;-81
2021/05/11 15:43:35;;;;;;;7.50;3.00;;;;;;;29.61;25.39;98186.08;2296734;77;22737;-81
2021/05/11 15:46:49;;;;;;;7.78;6.55;;;;;;;29.36;26.25;98180.78;2262374;79;22836;-80
2021/05/11 15:49:59;;;;;;;17.20;3.40;;;;;;;29.29;26.17;98179.52;2212648;79;22896;-79
2021/05/11 15:53:15;;;;;;;6.97;2.55;;;;;;;29.32;26.53;98174.78;2398131;74;22956;-79
2021/05/11 15:56:25;;;;;;;12.88;3.50;;;;;;;29.63;26.47;98181.45;2261074;77;22455;-80
2021/05/11 15:59:35;;;;;;;6.03;2.60;;;;;;;29.66;26.68;98175.83;2262245;79;22803;-82
2021/05/11 16:02:45;;;;;;;6.55;2.75;;;;;;;29.50;26.75;98177.97;2213034;79;22754;-81
2021/05/11 16:05:55;;;;;;;7.78;2.80;;;;;;;29.39;26.70;98173.83;2302189;77;23075;-79
2021/05/11 16:09:11;;;;;;;9.73;2.87;;;;;;;29.42;27.14;98172.25;2398248;74;23145;-80
2021/05/11 16:12:27;;;;;;;5.08;2.77;;;;;;;29.62;27.15;98171.66;2262211;79;22350;-80
2021/05/11 16:15:37;;;;;;;4.25;2.60;;;;;;;29.53;27.00;98162.09;2296750;77;22529;-81
2021/05/11 16:18:47;;;;;;;9.08;2.87;;;;;;;29.37;26.69;98160.50;2213936;79;22918;-82
2021/05/11 16:21:57;;;;;;;6.62;2.90;;;;;;;29.40;26.76;98156.23;2262454;79;22721;-81
2021/05/11 16:25:06;;;;;;;6.15;2.72;;;;;;;29.33;26.74;98158.16;2262625;79;22558;-80
2021/05/11 16:28:16;;;;;;;5.97;2.55;;;;;;;29.44;26.42;98148.83;2297005;77;22991;-81
2021/05/11 16:31:32;;;;;;;16.82;3.65;;;;;;;29.72;26.19;98159.23;2269913;78;22818;-80
2021/05/11 16:34:42;;;;;;;47.83;7.00;;;;;;;29.95;25.60;98159.28;2213471;79;22436;-82
2021/05/11 16:37:51;;;;;;;9.38;3.47;;;;;;;30.05;25.64;98150.89;2275720;77;22894;-82
2021/05/11 16:41:08;;;;;;;3.80;2.80;;;;;;;30.13;25.62;98151.14;2308368;76;21953;-81
2021/05/11 16:44:18;;;;;;;3.83;2.72;;;;;;;30.40;25.19;98157.06;2213306;79;23220;-81
2021/05/11 16:47:54;;;;;;;15.23;5.60;;;;;;;30.40;24.96;98155.72;2303646;77;22632;-81
2021/05/11 16:51:30;;;;;;;;;;;;;;;;;;;;;
2021/05/11 16:54:51;;;;;;;5.30;3.05;;;;;;;30.81;24.69;98162.81;2299288;77;22562;-80
2021/05/11 16:58:05;;;;;;;3.77;3.10;;;;;;;31.05;23.86;98156.27;2260992;77;23632;-80
2021/05/11 17:01:16;;;;;;;7.22;3.05;;;;;;;30.84;23.89;98158.03;2263088;79;22416;-81
2021/05/11 17:04:31;;;;;;;4.62;2.30;;;;;;;30.89;23.99;98155.82;2262636;79;22425;-80
2021/05/11 17:07:43;;;;;;;3.22;2.52;;;;;;;30.83;23.66;98154.97;2213750;79;22529;-80
2021/05/11 17:10:53;;;;;;;6.00;2.80;;;;;;;30.71;23.64;98158.17;2242610;79;27677;-81
2021/05/11 17:14:02;;;;;;;4.67;2.50;;;;;;;31.48;22.73;98155.94;2213254;79;22925;-80
2021/05/11 17:17:18;;;;;;;3.83;2.37;;;;;;;31.74;22.68;98155.11;2262202;79;22536;-81
2021/05/11 17:20:28;;;;;;;3.67;2.52;;;;;;;31.81;22.00;98150.41;2242558;78;27653;-80
2021/05/11 17:23:39;;;;;;;4.60;2.58;;;;;;;32.09;21.47;98150.26;2275810;77;22566;-81
2021/05/11 17:26:58;;;;;;;7.67;2.70;;;;;;;32.10;21.65;98153.81;2211273;79;22691;-78
2021/05/11 17:30:07;;;;;;;5.60;2.58;;;;;;;32.09;21.38;98147.56;2297015;77;22947;-80
2021/05/11 17:33:17;;;;;;;41.85;5.70;;;;;;;32.00;21.52;98148.33;2212959;79;22887;-80
2021/05/11 17:36:33;;;;;;;2.72;2.30;;;;;;;31.74;21.46;98153.77;2262014;79;23161;-80
2021/05/11 17:39:42;;;;;;;2.92;2.60;;;;;;;31.47;21.60;98148.34;2296834;77;22594;-81
2021/05/11 17:43:21;;;;;;;3.90;2.25;;;;;;;30.94;21.97;98152.75;1906326;90;22821;-80
2021/05/11 17:46:23;;;;;;;4.53;2.58;;;;;;;30.39;22.70;98159.39;1879600;91;21049;-80
2021/05/11 17:49:24;;;;;;;5.22;2.40;;;;;;;29.63;23.50;98165.31;1879652;91;21054;-80
2021/05/11 17:52:25;;;;;;;10.03;2.80;;;;;;;28.77;24.59;98164.53;1879860;91;21091;-80
2021/05/11 17:55:26;;;;;;;23.50;3.62;;;;;;;28.04;25.95;98167.03;1879405;91;21021;-80
2021/05/11 17:58:27;;;;;;;3.85;2.75;;;;;;;27.42;26.86;98164.95;1879800;91;21045;-80
2021/05/11 18:01:28;;;;;;;4.62;2.62;;;;;;;26.90;27.92;98168.84;1879380;91;21057;-79